LPPTLPPD

Guest
Details From LPPT - Lisboa
To LPPD - PONTA DELGADA
Flight Number -
Tags decoded
Created
Modified
Stats Distance 782 nm / 1,449 km
Max Altitude 0 ft / 0 m
Waypoints 2
Social Downloads 5
Likes 0
Share VATSIM

Download

Looking for another format? Having issues loading an existing format? Contact us
Advertisement - Login to hide

Notes

Requested: LPPT LPPD

Route

LPPT LPPD

ID Type Via Altitude Latitude Longitude Leg Dist Tot Dist Heading (true) Name
O LPPT APT - 0 ft / 0 m 38.77856˚ -9.13515˚ - 0 nm - Lisboa
O LPPD APT - 0 ft / 0 m 37.74208˚ -25.69774˚ 782 nm 782 nm 271° / 260° PONTA DELGADA

Altitude Profile

Advertisement - Login to hide

Weather


0- 5 10 15 20 25 30 35+ Temperature / ° C

Clouds and Precipitation
Forecast for 2018-05-20 12:00 UTC. Updated 3 hours ago

Ground ~20,000 ft ~40,000 ft Winds

LPPT

Details ICAO LPPT (LIS)
Name Lisboa
Region Portugal
Timezone Europe/Lisbon (UTC+1.0)
Stats Elevation 374 ft / 114 m (AMSL)
Location 38.778559° -9.135146°
Runways 2
Magnetic Variation 2.311° W

METAR

LPPT 201400Z VRB04KT 9999 FEW040 24/14 Q1013

Decode

TAF

TAF LPPT 201100Z 2012/2118 31010KT 9999 FEW035TCU PROB30 TEMPO 2012/2018 5000 TSRA SCT030CB BECMG 2022/2024 30005KT SCT012 PROB30 TEMPO 2022/2108 BKN005 BECMG 2103/2106 VRB03KT BECMG 2109/2112 23010KT FEW030

Decode

Departure Runways

ID Width Length Bearing (true) Bearing (mag) Surface Threshold Offset Overrun Length
03 148 ft / 45 m 12,518 ft / 3,815 m 22.70° 25.01° Asphalt 296 ft / 90 m 0 ft / 0 m
17 148 ft / 45 m 7,922 ft / 2,415 m 168.38° 170.69° Asphalt 0 ft / 0 m 0 ft / 0 m
21 148 ft / 45 m 12,518 ft / 3,815 m 202.72° 205.03° Asphalt 1,969 ft / 600 m 0 ft / 0 m
35 148 ft / 45 m 7,922 ft / 2,415 m 348.38° 350.69° Asphalt 492 ft / 150 m 0 ft / 0 m

LPPD

Details ICAO LPPD (PDL)
Name PONTA DELGADA
Region Portugal
Timezone Atlantic/Azores (UTC+0.0)
Stats Elevation 259 ft / 79 m (AMSL)
Location 37.742078° -25.697736°
Runways 1
Magnetic Variation 8.301° W

METAR

LPPD 201400Z 28011KT 9999 FEW004 SCT007 FEW016TCU 20/19 Q1020

Decode

TAF

TAF LPPD 201100Z 2012/2112 28010KT 9999 FEW004 SCT015 TEMPO 2012/2021 SCT004 BKN010 BECMG 2019/2021 02015KT BKN030 TEMPO 2021/2112 03018G28KT PROB30 TEMPO 2021/2106 5000 SHRA BKN015 BECMG 2106/2108 SCT030

Decode

Destination Runways

ID Width Length Bearing (true) Bearing (mag) Surface Threshold Offset Overrun Length
12 148 ft / 45 m 8,179 ft / 2,493 m 111.77° 120.07° Asphalt 0 ft / 0 m 375 ft / 114 m
30 148 ft / 45 m 8,179 ft / 2,493 m 291.79° 300.09° Asphalt 787 ft / 240 m 0 ft / 0 m

Approach Navaids

Runway Type Ident Frequency Range Bearing (true) Bearing (mag) Slope Elevation
30 Localiser NL 109.50 MHz 18 nm / 33 km 291.78° 300.08° - 259 ft / 79 m (AMSL)
30 Glidescope NL 109.50 MHz 10 nm / 19 km 291.78° 300.08° 3.00° 259 ft / 79 m (AMSL)
30 DME NL 109.50 MHz 18 nm / 33 km - - - 259 ft / 79 m (AMSL)

Popular Alternatives